Nearby METAR Reports

 

KPMP - Pompano Beach, Florida, USA
Distance from station: NNW 3mi, 5km
Updated: 04/19/2018 8:53am
Few Clouds
Few Clouds
 Wind from W
Wind: W 3 mph , 6 km/h
Temperature: 73°F , 23°C
Dew Point: 66°F , 19°C
Humidity: 78%
Barometer: 30.13 inHg , 1020.3 hPa
Clouds: Few Clouds
Visibility: 10 miles , 16 km
Cloud details: Few Clouds 3100 ft
2018/04/19 12:53 KPMP 191253Z 28003KT 10SM FEW031 23/19 A3013 RMK AO2 SLP203 T02330194
KFXE - Ft Lauderd/Exec, Florida, USA
Distance from station: W 6mi, 9km
Updated: 04/19/2018 8:53am
Few Clouds
Few Clouds
 Wind from calm
Wind: Calm
Temperature: 73°F , 23°C
Dew Point: 66°F , 19°C
Humidity: 78%
Barometer: 30.13 inHg , 1020.3 hPa
Clouds: Few Clouds
Visibility: 10 miles , 16 km
Cloud details: Few Clouds 3000 ft
2018/04/19 12:53 KFXE 191253Z 00000KT 10SM FEW030 23/19 A3013 RMK AO2 SLP205 T02280189
 
KFLL - Ft Lauderd/Holly, Florida, USA
Distance from station: SSW 11mi, 17km
Updated: 04/19/2018 8:53am
Few Clouds
Few Clouds
 Wind from calm
Wind: Calm
Temperature: 73°F , 23°C
Dew Point: 66°F , 19°C
Humidity: 78%
Barometer: 30.12 inHg , 1020 hPa
Clouds: Few Clouds
Visibility: 10 miles , 16 km
Cloud details: Few Clouds 3000 ft
2018/04/19 12:53 KFLL 191253Z 00000KT 10SM FEW030 23/19 A3012 RMK AO2 SLP199 T02330194 $
KBCT - Boca Raton, Florida, USA
Distance from station: N 12mi, 19km
Updated: 04/19/2018 8:55am
Clear
Clear
 Wind from NW
Wind: NW 3 mph , 6 km/h
Temperature: 72°F , 22°C
Dew Point: 64°F , 18°C
Humidity: 78%
Barometer: 30.14 inHg , 1020.7 hPa
Clouds: Clear
Visibility: 10 miles , 16 km
2018/04/19 12:55 KBCT 191255Z 32003KT 10SM CLR 22/18 A3014
 
KHWO - Hollywood, Florida, USA
Distance from station: SSW 17mi, 27km
Updated: 04/19/2018 8:53am
Clear
Clear
 Wind from NW
Wind: NW 3 mph , 6 km/h
Temperature: 75°F , 24°C
Dew Point: 64°F , 18°C
Humidity: 69%
Barometer: 30.14 inHg , 1020.7 hPa
Clouds: Clear
Visibility: 10 miles , 16 km
2018/04/19 12:53 KHWO 191253Z 32003KT 10SM CLR 24/18 A3014 RMK AO2 SLP207 T02390183
KOPF - Miami/Opa Locka, Florida, USA
Distance from station: SSW 24mi, 38km
Updated: 04/19/2018 8:53am
Few Clouds
Few Clouds
 Wind from NNW
Wind: NNW 3 mph , 6 km/h
Temperature: 73°F , 23°C
Dew Point: 66°F , 19°C
Humidity: 78%
Barometer: 30.13 inHg , 1020.3 hPa
Clouds: Few Clouds
Visibility: 10 miles , 16 km
Cloud details: Few Clouds 2900 ft
2018/04/19 12:53 KOPF 191253Z 33003KT 10SM FEW029 23/19 A3013
 
KMIA - Miami, Florida, USA
Distance from station: SSW 31mi, 50km
Updated: 04/19/2018 8:53am
Partly cloudy
Partly cloudy
 Wind from varies
Wind: varies 5 mph , 7 km/h
Temperature: 73°F , 23°C
Dew Point: 66°F , 19°C
Humidity: 78%
Barometer: 30.12 inHg , 1020 hPa
Clouds: Partly cloudy
Visibility: 10 miles , 16 km
Cloud details: Partly cloudy 3000 ft
Partly cloudy 30000 ft
2018/04/19 12:53 KMIA 191253Z VRB04KT 10SM SCT030 SCT300 23/19 A3012 RMK AO2 SLP201 T02330189
KPBI - West Palm Beach, Florida, USA
Distance from station: N 33mi, 52km
Updated: 04/19/2018 8:53am
Partly cloudy
Partly cloudy
 Wind from NW
Wind: NW 5 mph , 7 km/h
Temperature: 72°F , 22°C
Dew Point: 64°F , 18°C
Humidity: 78%
Barometer: 30.14 inHg , 1020.7 hPa
Clouds: Partly cloudy
Visibility: 10 miles , 16 km
Cloud details: Few Clouds 3200 ft
Partly cloudy 25000 ft
2018/04/19 12:53 KPBI 191253Z 31004KT 10SM FEW032 SCT250 22/18 A3014 RMK AO2 SLP206 T02170178
 
KTMB - Miami/Tamiami, Florida, USA
Distance from station: SSW 44mi, 71km
Updated: 04/19/2018 8:53am
Few Clouds
Few Clouds
 Wind from calm
Wind: Calm
Temperature: 73°F , 23°C
Dew Point: 64°F , 18°C
Humidity: 74%
Barometer: 30.12 inHg , 1020 hPa
Clouds: Few Clouds
Visibility: 10 miles , 16 km
Cloud details: Few Clouds 5000 ft
2018/04/19 12:53 KTMB 191253Z 00000KT 10SM FEW050 23/18 A3012 RMK AO2 SLP200 T02280178